Time;durP1;ratioP1;P1;durP2;ratioP2;P2;SDS_P1;SDS_P2;PMS_P1;PMS_P2;Temp;Humidity;BMP_temperature;BMP_pressure;BME280_temperature;BME280_humidity;BME280_pressure;Samples;Min_cycle;Max_cycle;Signal;HPM_P1;HPM_P2
2020/12/19 00:01:30;;;;;;;14.55;11.40;;;6.20;99.90;;;;;;5037036;28;20065;-68
2020/12/19 00:03:56;;;;;;;16.75;12.02;;;6.10;99.90;;;;;;5020344;28;20021;-59
2020/12/19 00:06:21;;;;;;;16.35;11.48;;;6.00;99.90;;;;;;5023442;28;20057;-61
2020/12/19 00:08:47;;;;;;;14.77;10.57;;;6.10;99.90;;;;;;5043335;28;20479;-60
2020/12/19 00:11:14;;;;;;;15.00;10.23;;;6.20;99.90;;;;;;5006843;28;20078;-60
2020/12/19 00:13:40;;;;;;;15.82;11.30;;;6.30;99.90;;;;;;5045890;28;20013;-63
2020/12/19 00:16:06;;;;;;;23.92;13.45;;;6.30;99.90;;;;;;5034963;28;20041;-60
2020/12/19 00:18:32;;;;;;;20.98;11.45;;;8.20;99.90;;;;;;5032303;28;20526;-60
2020/12/19 00:20:57;;;;;;;15.75;10.10;;;7.30;99.90;;;;;;5034693;28;20029;-62
2020/12/19 00:23:23;;;;;;;13.38;10.13;;;6.60;99.90;;;;;;5042660;28;20037;-60
2020/12/19 00:25:49;;;;;;;19.63;11.32;;;6.20;99.90;;;;;;5031978;28;20330;-60
2020/12/19 00:28:14;;;;;;;18.65;11.30;;;6.20;99.90;;;;;;5034206;28;20037;-60
2020/12/19 00:30:40;;;;;;;16.20;11.10;;;6.30;99.90;;;;;;5052351;28;20083;-60
2020/12/19 00:33:06;;;;;;;14.38;10.30;;;6.30;99.90;;;;;;5053323;28;20029;-59
2020/12/19 00:35:31;;;;;;;17.05;11.43;;;6.40;99.90;;;;;;5018543;28;20032;-61
2020/12/19 00:37:57;;;;;;;14.52;10.35;;;6.30;99.90;;;;;;5053105;28;20029;-63
2020/12/19 00:40:23;;;;;;;16.45;12.15;;;6.20;99.90;;;;;;5053052;28;20032;-59
2020/12/19 00:42:48;;;;;;;17.05;11.30;;;6.20;99.90;;;;;;5051788;28;20029;-59
2020/12/19 00:45:14;;;;;;;14.75;10.20;;;6.20;99.90;;;;;;5034614;28;20061;-59
2020/12/19 00:47:39;;;;;;;13.10;9.88;;;6.30;99.90;;;;;;5033949;28;20112;-59
2020/12/19 00:50:07;;;;;;;15.20;10.40;;;6.10;99.90;;;;;;5034471;28;20021;-60
2020/12/19 00:52:36;;;;;;;14.68;10.40;;;6.10;99.90;;;;;;5051743;28;20114;-60
2020/12/19 00:55:04;;;;;;;17.23;11.82;;;6.00;99.90;;;;;;5052812;28;20052;-59
2020/12/19 00:57:33;;;;;;;17.83;10.38;;;6.10;99.90;;;;;;5034777;28;20033;-60
2020/12/19 00:59:59;;;;;;;15.65;10.45;;;6.10;99.90;;;;;;5035655;28;20545;-58
2020/12/19 01:02:26;;;;;;;15.20;10.85;;;6.10;99.90;;;;;;5055890;28;20074;-60
2020/12/19 01:04:52;;;;;;;16.25;10.25;;;5.90;99.90;;;;;;5038094;28;20140;-60
2020/12/19 01:07:17;;;;;;;14.70;10.52;;;6.00;99.90;;;;;;5056410;28;20064;-59
2020/12/19 01:09:43;;;;;;;15.25;11.02;;;5.90;99.90;;;;;;5056385;28;20378;-61
2020/12/19 01:12:09;;;;;;;18.30;11.48;;;5.70;99.90;;;;;;5056132;28;20029;-59
2020/12/19 01:14:35;;;;;;;14.75;10.25;;;5.80;99.90;;;;;;5055346;28;20025;-59
2020/12/19 01:17:05;;;;;;;17.52;10.80;;;5.60;99.90;;;;;;5037720;28;20569;-59
2020/12/19 01:19:31;;;;;;;18.90;11.88;;;5.60;99.90;;;;;;5037418;28;20035;-59
2020/12/19 01:21:57;;;;;;;14.70;10.77;;;5.70;99.90;;;;;;5055583;28;20028;-59
2020/12/19 01:24:23;;;;;;;16.70;10.27;;;5.70;99.90;;;;;;5038126;28;20104;-60
2020/12/19 01:26:48;;;;;;;15.90;10.95;;;5.70;99.90;;;;;;5055399;28;20116;-58
2020/12/19 01:29:15;;;;;;;17.27;11.75;;;5.70;99.90;;;;;;5055675;28;20100;-59
2020/12/19 01:31:40;;;;;;;13.50;10.60;;;5.80;99.90;;;;;;5054821;28;20029;-60
2020/12/19 01:34:06;;;;;;;14.25;9.88;;;5.70;99.90;;;;;;5037860;28;20087;-60
2020/12/19 01:36:32;;;;;;;15.90;11.07;;;5.70;99.90;;;;;;5037054;28;20394;-59
2020/12/19 01:38:58;;;;;;;18.88;11.70;;;5.70;99.90;;;;;;5037837;28;20025;-61
2020/12/19 01:41:24;;;;;;;16.50;10.85;;;5.70;99.90;;;;;;5055434;28;20056;-59
2020/12/19 01:43:58;;;;;;;17.85;11.00;;;5.60;99.90;;;;;;5054923;28;20482;-67
2020/12/19 01:46:42;;;;;;;18.30;11.82;;;5.60;99.90;;;;;;5055623;28;20435;-60
2020/12/19 01:49:09;;;;;;;19.30;10.88;;;5.60;99.90;;;;;;5055485;28;20021;-60
2020/12/19 01:51:36;;;;;;;14.13;10.30;;;5.60;99.90;;;;;;5055432;28;20067;-61
2020/12/19 01:54:02;;;;;;;16.00;10.48;;;5.70;99.90;;;;;;5056750;28;20067;-59
2020/12/19 01:56:50;;;;;;;18.13;10.38;;;5.70;99.90;;;;;;5057968;28;20478;-59
2020/12/19 01:59:16;;;;;;;15.30;10.00;;;5.70;99.90;;;;;;5040461;28;20065;-60
2020/12/19 02:01:50;;;;;;;16.67;11.27;;;5.60;99.90;;;;;;5039397;28;20033;-64
2020/12/19 02:04:17;;;;;;;15.07;9.85;;;5.60;99.90;;;;;;5057182;28;20033;-70
2020/12/19 02:06:49;;;;;;;17.30;11.40;;;5.60;99.90;;;;;;5037827;28;20049;-63
2020/12/19 02:09:17;;;;;;;11.52;8.55;;;5.60;99.90;;;;;;5039771;28;20104;-60
2020/12/19 02:11:44;;;;;;;14.00;10.77;;;5.50;99.90;;;;;;5056277;28;20166;-64
2020/12/19 02:14:10;;;;;;;15.95;10.80;;;5.50;99.90;;;;;;5055555;28;20032;-60
2020/12/19 02:16:37;;;;;;;15.68;10.60;;;5.50;99.90;;;;;;5037724;28;20029;-59
2020/12/19 02:19:12;;;;;;;15.60;10.80;;;5.60;99.90;;;;;;5056737;28;20060;-62
2020/12/19 02:21:39;;;;;;;14.68;10.15;;;5.50;99.90;;;;;;5038896;28;20040;-60
2020/12/19 02:24:05;;;;;;;15.70;10.77;;;5.60;99.90;;;;;;5020530;28;20041;-60
2020/12/19 02:26:32;;;;;;;15.88;9.77;;;5.60;99.90;;;;;;5055168;28;20029;-63
2020/12/19 02:28:57;;;;;;;16.10;9.93;;;5.60;99.90;;;;;;5055979;28;20031;-60
2020/12/19 02:31:23;;;;;;;13.70;9.82;;;5.60;99.90;;;;;;5039386;28;20111;-60
2020/12/19 02:33:49;;;;;;;15.05;10.25;;;5.60;99.90;;;;;;5055425;28;20471;-59
2020/12/19 02:36:14;;;;;;;15.02;9.45;;;5.60;99.90;;;;;;5038550;28;20062;-62
2020/12/19 02:38:40;;;;;;;14.00;10.57;;;5.60;99.90;;;;;;5038272;28;20025;-66
2020/12/19 02:41:05;;;;;;;13.02;9.43;;;5.60;99.90;;;;;;5057106;28;20126;-60
2020/12/19 02:43:31;;;;;;;15.45;11.07;;;5.70;99.90;;;;;;5057211;28;20518;-64
2020/12/19 02:45:58;;;;;;;13.93;9.80;;;5.70;99.90;;;;;;5056656;28;20036;-60
2020/12/19 02:48:24;;;;;;;15.75;10.85;;;5.70;99.90;;;;;;5056950;28;20055;-65
2020/12/19 02:50:49;;;;;;;12.40;9.70;;;5.70;99.90;;;;;;5056120;28;20025;-60
2020/12/19 02:53:15;;;;;;;14.77;10.18;;;5.80;99.90;;;;;;5056705;28;20064;-67
2020/12/19 02:55:41;;;;;;;14.07;9.48;;;5.70;99.90;;;;;;5056576;28;20024;-67
2020/12/19 02:58:06;;;;;;;14.02;9.90;;;5.70;99.90;;;;;;5038584;28;20024;-63
2020/12/19 03:00:35;;;;;;;16.40;10.25;;;5.60;99.90;;;;;;5055508;28;20120;-60
2020/12/19 03:03:01;;;;;;;14.05;10.48;;;5.60;99.90;;;;;;5056121;28;20036;-59
2020/12/19 03:05:26;;;;;;;14.93;10.95;;;5.50;99.90;;;;;;5055828;28;20477;-63
2020/12/19 03:07:52;;;;;;;16.55;9.48;;;5.60;99.90;;;;;;5037541;28;20113;-60
2020/12/19 03:10:18;;;;;;;14.65;10.13;;;5.60;99.90;;;;;;5037199;28;20462;-60
2020/12/19 03:12:43;;;;;;;14.52;10.27;;;5.60;99.90;;;;;;5036439;28;20095;-59
2020/12/19 03:15:09;;;;;;;14.75;10.27;;;5.60;99.90;;;;;;5036866;28;20027;-59
2020/12/19 03:17:35;;;;;;;13.23;10.18;;;5.60;99.90;;;;;;5053759;28;20036;-71
2020/12/19 03:20:01;;;;;;;14.15;10.43;;;5.60;99.90;;;;;;5053876;28;20032;-61
2020/12/19 03:22:26;;;;;;;13.88;10.57;;;5.60;99.90;;;;;;5056132;28;20050;-63
2020/12/19 03:24:52;;;;;;;15.48;10.27;;;5.60;99.90;;;;;;5053838;28;20382;-60
2020/12/19 03:27:17;;;;;;;15.15;10.75;;;5.60;99.90;;;;;;5035530;28;20059;-59
2020/12/19 03:29:43;;;;;;;14.25;10.60;;;5.60;99.90;;;;;;5053177;28;20033;-60
2020/12/19 03:32:09;;;;;;;16.08;10.60;;;5.60;99.90;;;;;;5053762;28;20156;-60
2020/12/19 03:34:34;;;;;;;15.25;10.85;;;5.60;99.90;;;;;;5053807;28;20060;-60
2020/12/19 03:37:00;;;;;;;14.02;9.77;;;5.70;99.90;;;;;;5053066;28;20463;-59
2020/12/19 03:39:26;;;;;;;14.55;10.82;;;5.60;99.90;;;;;;5052908;28;20033;-59
2020/12/19 03:41:51;;;;;;;19.00;10.30;;;5.70;99.90;;;;;;5052643;28;20032;-59
2020/12/19 03:44:17;;;;;;;13.00;10.65;;;5.60;99.90;;;;;;5053205;28;20392;-59
2020/12/19 03:46:43;;;;;;;15.65;10.93;;;5.70;99.90;;;;;;5034707;28;20450;-59
2020/12/19 03:49:09;;;;;;;13.10;10.25;;;5.80;99.90;;;;;;5035687;28;20056;-64
2020/12/19 03:51:35;;;;;;;18.33;12.55;;;5.60;99.90;;;;;;5036394;28;20024;-59
2020/12/19 03:54:01;;;;;;;18.13;11.55;;;5.50;99.90;;;;;;5053651;28;20032;-60
2020/12/19 03:56:26;;;;;;;15.45;10.13;;;5.60;99.90;;;;;;5053153;28;20402;-60
2020/12/19 03:58:52;;;;;;;16.15;10.65;;;5.70;99.90;;;;;;5052675;28;20060;-60
2020/12/19 04:01:18;;;;;;;15.82;11.30;;;5.70;99.90;;;;;;5052502;28;20446;-59
2020/12/19 04:03:43;;;;;;;17.15;11.13;;;5.80;99.90;;;;;;5053415;28;20029;-61
2020/12/19 04:06:09;;;;;;;15.52;11.65;;;5.80;99.90;;;;;;5054478;28;20124;-60
2020/12/19 04:08:35;;;;;;;13.73;9.73;;;5.90;99.90;;;;;;5053460;28;20071;-59
2020/12/19 04:11:00;;;;;;;15.48;11.23;;;6.00;99.90;;;;;;5052572;28;20099;-64
2020/12/19 04:13:26;;;;;;;15.60;10.80;;;5.80;99.90;;;;;;5054526;28;20025;-60
2020/12/19 04:15:52;;;;;;;16.17;11.40;;;5.80;99.90;;;;;;5054410;28;20025;-60
2020/12/19 04:18:17;;;;;;;15.15;10.32;;;5.90;99.90;;;;;;5054889;28;20025;-60
2020/12/19 04:20:43;;;;;;;18.42;11.55;;;5.80;99.90;;;;;;5053660;28;20120;-60
2020/12/19 04:23:08;;;;;;;17.05;11.52;;;5.70;99.90;;;;;;5055081;28;20089;-60
2020/12/19 04:25:34;;;;;;;16.67;11.05;;;5.90;99.90;;;;;;5055512;28;20024;-60
2020/12/19 04:28:00;;;;;;;15.65;10.57;;;5.70;99.90;;;;;;5055143;28;20470;-59
2020/12/19 04:30:25;;;;;;;14.90;10.05;;;5.80;99.90;;;;;;5054969;28;20033;-60
2020/12/19 04:32:51;;;;;;;16.02;10.90;;;5.90;99.90;;;;;;5054837;28;20047;-60
2020/12/19 04:35:17;;;;;;;19.17;12.80;;;6.00;99.90;;;;;;5038114;28;20025;-59
2020/12/19 04:37:42;;;;;;;20.73;12.63;;;5.90;99.90;;;;;;5040067;28;20099;-65
2020/12/19 04:40:08;;;;;;;17.50;11.77;;;5.80;99.90;;;;;;5058343;28;20417;-59
2020/12/19 04:42:35;;;;;;;15.70;11.38;;;5.70;99.90;;;;;;5058647;28;20086;-61
2020/12/19 04:45:00;;;;;;;15.32;11.00;;;5.90;99.90;;;;;;5057932;28;20241;-61
2020/12/19 04:47:27;;;;;;;14.73;10.38;;;5.90;99.90;;;;;;5058070;28;20381;-62
2020/12/19 04:49:53;;;;;;;18.55;11.20;;;5.80;99.90;;;;;;5057592;28;20029;-59
2020/12/19 04:52:19;;;;;;;18.45;12.05;;;5.90;99.90;;;;;;5040233;28;20090;-61
2020/12/19 04:54:45;;;;;;;17.50;11.90;;;6.00;99.90;;;;;;5056870;28;20028;-60
2020/12/19 04:57:17;;;;;;;17.15;11.52;;;5.90;99.90;;;;;;5057938;28;20025;-60
2020/12/19 04:59:43;;;;;;;16.08;10.90;;;5.80;99.90;;;;;;5057195;28;20031;-61
2020/12/19 05:02:09;;;;;;;17.25;12.25;;;6.00;99.90;;;;;;5057141;28;20456;-60
2020/12/19 05:04:39;;;;;;;16.55;11.48;;;6.00;99.90;;;;;;5039756;28;20029;-60
2020/12/19 05:07:08;;;;;;;17.38;11.45;;;6.00;99.90;;;;;;5035427;28;20076;-62
2020/12/19 05:09:38;;;;;;;17.02;12.27;;;6.00;99.90;;;;;;5037241;28;20429;-59
2020/12/19 05:12:04;;;;;;;17.92;12.35;;;5.80;99.90;;;;;;5034961;28;20029;-59
2020/12/19 05:14:33;;;;;;;16.83;11.98;;;5.80;99.90;;;;;;5036829;28;20144;-60
2020/12/19 05:17:00;;;;;;;16.45;11.73;;;5.90;99.90;;;;;;5035417;28;20026;-61
2020/12/19 05:19:27;;;;;;;19.63;12.30;;;6.00;99.90;;;;;;5035779;28;20025;-59
2020/12/19 05:21:54;;;;;;;18.30;12.32;;;6.10;99.90;;;;;;5035113;28;20025;-61
2020/12/19 05:24:28;;;;;;;17.55;12.32;;;6.10;99.90;;;;;;5036780;28;20116;-65
2020/12/19 05:26:54;;;;;;;16.13;10.85;;;6.00;99.90;;;;;;5035972;28;20060;-59
2020/12/19 05:29:19;;;;;;;17.30;11.93;;;6.00;99.90;;;;;;5036313;28;20029;-60
2020/12/19 05:31:54;;;;;;;16.70;11.57;;;6.00;99.90;;;;;;5034936;28;20528;-62
2020/12/19 05:34:21;;;;;;;18.60;11.93;;;6.00;99.90;;;;;;5036650;28;20029;-60
2020/12/19 05:36:48;;;;;;;19.20;12.77;;;6.00;99.90;;;;;;5036002;28;20037;-66
2020/12/19 05:39:14;;;;;;;15.68;11.50;;;6.00;99.90;;;;;;5035954;28;20502;-62
2020/12/19 05:41:40;;;;;;;17.40;11.52;;;5.90;99.90;;;;;;5036470;28;20034;-61
2020/12/19 05:44:06;;;;;;;18.00;11.70;;;5.90;99.90;;;;;;5034426;28;20025;-60
2020/12/19 05:46:38;;;;;;;16.90;11.93;;;5.80;99.90;;;;;;5036301;28;20097;-60
2020/12/19 05:49:06;;;;;;;19.02;11.55;;;5.90;99.90;;;;;;5034305;28;20212;-61
2020/12/19 05:51:33;;;;;;;17.88;11.73;;;5.90;99.90;;;;;;5036132;28;20039;-62
2020/12/19 05:54:28;;;;;;;17.40;13.02;;;5.90;99.90;;;;;;5035779;28;20037;-60
2020/12/19 05:56:54;;;;;;;17.15;12.40;;;5.90;99.90;;;;;;5034680;28;20050;-61
2020/12/19 05:59:20;;;;;;;19.85;11.80;;;6.00;99.90;;;;;;5034834;28;20463;-61
2020/12/19 06:01:48;;;;;;;16.98;11.65;;;6.00;99.90;;;;;;5035491;28;20041;-61
2020/12/19 06:04:15;;;;;;;16.50;11.57;;;6.00;99.90;;;;;;5035665;28;20091;-59
2020/12/19 06:06:43;;;;;;;15.95;11.55;;;6.00;99.90;;;;;;5051933;28;20056;-59
2020/12/19 06:09:09;;;;;;;18.63;12.07;;;6.00;99.90;;;;;;5054784;28;20431;-59
2020/12/19 06:11:51;;;;;;;17.35;12.55;;;6.00;99.90;;;;;;5037521;28;20024;-60
2020/12/19 06:14:26;;;;;;;15.63;12.30;;;6.00;99.90;;;;;;5056336;28;20028;-59
2020/12/19 06:16:55;;;;;;;18.92;11.93;;;6.00;99.90;;;;;;5054739;28;20032;-60
2020/12/19 06:19:23;;;;;;;18.20;12.18;;;6.00;99.90;;;;;;5054932;28;20458;-60
2020/12/19 06:21:56;;;;;;;15.80;11.45;;;6.10;99.90;;;;;;5054570;28;20025;-61
2020/12/19 06:24:47;;;;;;;17.88;12.95;;;6.10;99.90;;;;;;5037546;28;20044;-60
2020/12/19 06:27:22;;;;;;;15.35;11.40;;;6.10;99.90;;;;;;5037572;28;20033;-60
2020/12/19 06:29:51;;;;;;;18.98;12.15;;;6.10;99.90;;;;;;5054517;28;20025;-60
2020/12/19 06:32:29;;;;;;;17.73;12.25;;;6.10;99.90;;;;;;5055354;28;20029;-59
2020/12/19 06:35:10;;;;;;;17.48;11.90;;;6.20;99.90;;;;;;5055199;28;20071;-59
2020/12/19 06:37:38;;;;;;;19.20;11.93;;;6.20;99.90;;;;;;5037672;28;20017;-60
2020/12/19 06:40:20;;;;;;;21.08;12.38;;;6.20;99.90;;;;;;5054882;28;20263;-60
2020/12/19 06:42:48;;;;;;;16.90;12.38;;;6.20;99.90;;;;;;5055133;28;20115;-59
2020/12/19 06:45:30;;;;;;;19.58;11.52;;;6.10;99.90;;;;;;5055075;28;20033;-61
2020/12/19 06:47:59;;;;;;;18.65;12.40;;;6.10;99.90;;;;;;5054735;28;20035;-60
2020/12/19 06:50:45;;;;;;;17.73;12.10;;;6.20;99.90;;;;;;5054636;28;20083;-60
2020/12/19 06:53:15;;;;;;;16.50;10.85;;;6.10;99.90;;;;;;5053589;28;20033;-60
2020/12/19 06:55:41;;;;;;;17.63;11.77;;;6.20;99.90;;;;;;5054442;28;20021;-60
2020/12/19 06:58:06;;;;;;;20.40;11.95;;;6.10;99.90;;;;;;5053929;28;20363;-59
2020/12/19 07:00:32;;;;;;;17.85;12.13;;;6.10;99.90;;;;;;5036241;28;20033;-60
2020/12/19 07:02:59;;;;;;;16.42;11.50;;;6.10;99.90;;;;;;5054655;28;20033;-60
2020/12/19 07:05:33;;;;;;;22.60;13.45;;;6.10;99.90;;;;;;5055128;28;20079;-60
2020/12/19 07:08:19;;;;;;;16.00;11.23;;;6.00;99.90;;;;;;5037331;28;20028;-62
2020/12/19 07:10:45;;;;;;;20.50;12.30;;;6.00;99.90;;;;;;5055119;28;20033;-64
2020/12/19 07:13:12;;;;;;;17.25;11.85;;;5.90;99.90;;;;;;5036541;28;20029;-63
2020/12/19 07:15:50;;;;;;;18.33;11.45;;;5.90;99.90;;;;;;5055075;28;20035;-59
2020/12/19 07:18:37;;;;;;;18.10;12.55;;;5.90;99.90;;;;;;5055906;28;20033;-60
2020/12/19 07:21:10;;;;;;;22.33;12.85;;;5.90;99.90;;;;;;5054589;28;20493;-63
2020/12/19 07:23:37;;;;;;;19.80;12.93;;;5.90;99.90;;;;;;5055862;28;20025;-62
2020/12/19 07:26:04;;;;;;;21.45;12.85;;;5.80;99.90;;;;;;5055236;28;20108;-60
2020/12/19 07:28:30;;;;;;;18.90;11.80;;;5.90;99.90;;;;;;5055267;28;20029;-62
2020/12/19 07:30:56;;;;;;;22.00;12.23;;;5.90;99.90;;;;;;5053828;28;20036;-63
2020/12/19 07:33:22;;;;;;;17.75;12.45;;;5.80;99.90;;;;;;5053896;28;20162;-62
2020/12/19 07:35:48;;;;;;;17.58;11.63;;;5.80;99.90;;;;;;5055238;28;20029;-63
2020/12/19 07:38:14;;;;;;;18.17;12.95;;;5.90;99.90;;;;;;5035903;28;20474;-62
2020/12/19 07:40:40;;;;;;;23.88;12.75;;;5.80;99.90;;;;;;5054634;28;20080;-61
2020/12/19 07:43:10;;;;;;;23.83;12.70;;;5.80;99.90;;;;;;5035424;28;20055;-62
2020/12/19 07:45:38;;;;;;;18.88;12.18;;;5.90;99.90;;;;;;5053708;28;20100;-62
2020/12/19 07:48:04;;;;;;;22.75;12.77;;;5.80;99.90;;;;;;5053017;28;20083;-60
2020/12/19 07:50:32;;;;;;;19.08;11.85;;;5.90;99.90;;;;;;5053374;28;20103;-59
2020/12/19 07:53:03;;;;;;;14.52;10.63;;;5.90;99.90;;;;;;5053068;28;20029;-60
2020/12/19 07:55:29;;;;;;;20.92;12.65;;;6.10;99.90;;;;;;5053275;28;20074;-60
2020/12/19 07:57:55;;;;;;;17.67;11.73;;;6.80;99.90;;;;;;5034820;28;20033;-61
2020/12/19 08:00:24;;;;;;;18.75;11.32;;;7.50;99.90;;;;;;5052886;28;20090;-60
2020/12/19 08:02:51;;;;;;;13.32;10.32;;;8.40;99.90;;;;;;5052913;28;20036;-61
2020/12/19 08:05:17;;;;;;;17.83;11.73;;;9.10;99.90;;;;;;5051993;28;20049;-60
2020/12/19 08:07:42;;;;;;;14.68;10.70;;;9.50;99.90;;;;;;5052465;28;20025;-60
2020/12/19 08:10:10;;;;;;;13.85;9.48;;;10.00;99.90;;;;;;5051925;28;20048;-60
2020/12/19 08:12:36;;;;;;;13.52;9.60;;;10.60;99.90;;;;;;5051719;28;20480;-62
2020/12/19 08:15:05;;;;;;;17.08;9.68;;;11.20;98.70;;;;;;5033879;28;20025;-63
2020/12/19 08:17:38;;;;;;;10.82;8.63;;;12.00;97.30;;;;;;5052413;28;20025;-60
2020/12/19 08:20:04;;;;;;;11.02;9.35;;;11.30;97.30;;;;;;5051978;28;20481;-62
2020/12/19 08:22:31;;;;;;;11.13;9.48;;;11.50;97.70;;;;;;5053037;28;20108;-61
2020/12/19 08:24:57;;;;;;;13.27;9.05;;;11.20;97.40;;;;;;5034974;28;20037;-62
2020/12/19 08:27:45;;;;;;;14.85;10.10;;;10.20;99.10;;;;;;5037394;28;20071;-60
2020/12/19 08:30:41;;;;;;;15.77;11.00;;;9.00;99.90;;;;;;5054397;28;20027;-62
2020/12/19 08:33:08;;;;;;;13.68;10.27;;;9.40;99.90;;;;;;5026307;28;20049;-60
2020/12/19 08:35:36;;;;;;;14.55;10.82;;;9.50;99.90;;;;;;5036470;28;20529;-61
2020/12/19 08:38:05;;;;;;;12.82;9.70;;;9.60;99.90;;;;;;5035608;28;20036;-62
2020/12/19 08:40:36;;;;;;;10.75;8.45;;;10.20;99.90;;;;;;5034761;28;20127;-62
2020/12/19 08:43:03;;;;;;;10.32;8.48;;;10.90;98.20;;;;;;5017897;28;20029;-62
2020/12/19 08:45:29;;;;;;;12.55;8.88;;;11.00;98.20;;;;;;5052310;28;20401;-60
2020/12/19 08:48:28;;;;;;;10.93;9.02;;;11.70;98.10;;;;;;5035112;28;20468;-69
2020/12/19 08:50:54;;;;;;;9.60;8.18;;;13.40;94.60;;;;;;4997836;28;20103;-63
2020/12/19 08:53:24;;;;;;;10.35;8.65;;;14.40;95.70;;;;;;5051637;28;20091;-59
2020/12/19 08:55:51;;;;;;;9.82;7.70;;;14.10;91.80;;;;;;5034081;28;20025;-60
2020/12/19 08:58:23;;;;;;;9.85;8.50;;;12.20;94.60;;;;;;5051136;28;20021;-61
2020/12/19 09:00:50;;;;;;;10.50;9.32;;;11.70;94.90;;;;;;5051648;28;20032;-62
2020/12/19 09:03:28;;;;;;;11.20;8.43;;;10.70;98.20;;;;;;5051167;28;20530;-60
2020/12/19 09:05:59;;;;;;;11.20;8.90;;;10.60;98.20;;;;;;5033995;28;20049;-61
2020/12/19 09:08:42;;;;;;;10.95;8.73;;;9.90;99.40;;;;;;5030991;28;20390;-60
2020/12/19 09:11:20;;;;;;;12.27;8.88;;;8.70;99.90;;;;;;5021803;28;20126;-60
2020/12/19 09:13:46;;;;;;;12.23;9.65;;;8.20;99.90;;;;;;5022343;28;20092;-62
2020/12/19 09:16:12;;;;;;;10.63;9.30;;;8.40;99.90;;;;;;5041628;28;20021;-62
2020/12/19 09:18:39;;;;;;;11.18;9.38;;;7.80;99.90;;;;;;5023667;28;20036;-60
2020/12/19 09:21:08;;;;;;;16.08;9.88;;;7.40;99.90;;;;;;5027042;28;20033;-60
2020/12/19 09:23:34;;;;;;;13.18;8.75;;;7.80;99.90;;;;;;5042579;28;20204;-60
2020/12/19 09:26:02;;;;;;;11.38;8.85;;;7.80;99.90;;;;;;5022038;28;20021;-70
2020/12/19 09:28:28;;;;;;;11.52;8.38;;;8.10;99.90;;;;;;5020876;28;20122;-63
2020/12/19 09:30:56;;;;;;;12.98;9.48;;;7.90;99.90;;;;;;5017328;28;20041;-60
2020/12/19 09:33:22;;;;;;;12.23;8.82;;;7.70;99.90;;;;;;5048421;28;20505;-66
2020/12/19 09:35:48;;;;;;;12.27;9.52;;;7.80;99.90;;;;;;5045434;28;20025;-59
2020/12/19 09:38:14;;;;;;;13.45;9.00;;;8.10;99.90;;;;;;5043516;28;20032;-60
2020/12/19 09:40:40;;;;;;;10.75;7.43;;;8.20;99.90;;;;;;5035978;28;20033;-60
2020/12/19 09:43:06;;;;;;;10.40;8.48;;;8.80;99.90;;;;;;5034449;28;20036;-60
2020/12/19 09:45:33;;;;;;;11.57;7.97;;;9.00;99.90;;;;;;5017340;28;20029;-61
2020/12/19 09:47:59;;;;;;;11.75;8.15;;;9.30;99.90;;;;;;5017410;28;20029;-69
2020/12/19 09:50:26;;;;;;;9.63;7.90;;;10.20;99.90;;;;;;5034459;28;20091;-65
2020/12/19 09:52:52;;;;;;;9.70;7.60;;;10.70;98.70;;;;;;5035301;28;20029;-60
2020/12/19 09:55:18;;;;;;;10.48;7.88;;;11.40;98.40;;;;;;5035589;28;20033;-61
2020/12/19 09:57:44;;;;;;;10.13;7.90;;;11.50;96.10;;;;;;5045803;28;20029;-60
2020/12/19 10:00:11;;;;;;;9.18;7.22;;;11.70;96.60;;;;;;5041730;28;20021;-62
2020/12/19 10:02:38;;;;;;;9.43;7.10;;;12.50;95.20;;;;;;5034402;28;20053;-60
2020/12/19 10:05:04;;;;;;;9.43;7.38;;;12.80;94.60;;;;;;5026754;28;20053;-62
2020/12/19 10:07:30;;;;;;;12.48;7.80;;;13.40;93.60;;;;;;5030603;28;20075;-62
2020/12/19 10:09:55;;;;;;;9.00;7.55;;;13.40;92.20;;;;;;5036444;28;20458;-60
2020/12/19 10:12:21;;;;;;;7.05;6.25;;;14.10;90.90;;;;;;5035864;28;20020;-60
2020/12/19 10:14:47;;;;;;;8.15;7.20;;;14.10;90.60;;;;;;5036687;28;20029;-65
2020/12/19 10:17:13;;;;;;;7.65;6.03;;;13.90;92.30;;;;;;5054323;28;20040;-61
2020/12/19 10:19:38;;;;;;;10.15;7.32;;;13.00;92.40;;;;;;5019819;28;20120;-61
2020/12/19 10:22:04;;;;;;;7.72;6.50;;;13.00;94.20;;;;;;5053248;28;20462;-63
2020/12/19 10:24:30;;;;;;;8.82;7.15;;;13.90;92.20;;;;;;5053761;28;20060;-60
2020/12/19 10:26:56;;;;;;;7.82;6.15;;;14.70;90.90;;;;;;5034859;28;20035;-62
2020/12/19 10:29:22;;;;;;;9.13;6.47;;;14.50;90.10;;;;;;5053398;28;20656;-63
2020/12/19 10:31:48;;;;;;;8.63;6.53;;;14.10;91.00;;;;;;5052423;28;20029;-59
2020/12/19 10:34:14;;;;;;;8.18;6.20;;;13.60;92.30;;;;;;5040846;28;20390;-62
2020/12/19 10:36:39;;;;;;;9.82;6.65;;;13.30;92.60;;;;;;5021312;28;20028;-61
2020/12/19 10:39:05;;;;;;;7.32;6.53;;;13.00;94.10;;;;;;5042929;28;20026;-62
2020/12/19 10:41:31;;;;;;;7.93;6.93;;;13.50;92.40;;;;;;5024089;28;20031;-60
2020/12/19 10:43:57;;;;;;;7.63;6.03;;;11.90;94.50;;;;;;5040699;28;20041;-65
2020/12/19 10:46:24;;;;;;;7.85;6.57;;;11.90;95.70;;;;;;5039677;28;20036;-60
2020/12/19 10:48:50;;;;;;;7.72;6.93;;;11.40;96.50;;;;;;5041932;28;20116;-60
2020/12/19 10:51:16;;;;;;;9.60;6.32;;;12.00;95.50;;;;;;5021552;28;20029;-59
2020/12/19 10:53:43;;;;;;;9.55;6.60;;;11.60;96.50;;;;;;5045436;28;20032;-65
2020/12/19 10:56:16;;;;;;;8.43;6.15;;;12.00;96.10;;;;;;5037442;28;20475;-60
2020/12/19 10:58:41;;;;;;;9.10;6.20;;;12.90;94.60;;;;;;5043529;28;20086;-60
2020/12/19 11:01:07;;;;;;;8.80;6.93;;;13.40;93.10;;;;;;5044267;28;20454;-61
2020/12/19 11:03:33;;;;;;;13.00;6.05;;;12.40;94.60;;;;;;5024464;28;20032;-60
2020/12/19 11:05:58;;;;;;;8.50;6.05;;;12.40;94.20;;;;;;5042722;28;20053;-67
2020/12/19 11:08:24;;;;;;;9.73;6.13;;;11.80;97.40;;;;;;5040267;28;20036;-63
2020/12/19 11:10:50;;;;;;;7.60;5.70;;;12.10;97.10;;;;;;5026706;28;20071;-62
2020/12/19 11:13:15;;;;;;;8.43;6.18;;;11.20;97.30;;;;;;5041072;28;20513;-63
2020/12/19 11:15:41;;;;;;;8.63;6.45;;;11.30;97.20;;;;;;5028342;28;20036;-60
2020/12/19 11:18:07;;;;;;;16.33;7.25;;;10.80;98.00;;;;;;5024484;28;20425;-63
2020/12/19 11:20:33;;;;;;;8.88;6.60;;;10.90;98.50;;;;;;5017426;28;20047;-59
2020/12/19 11:22:58;;;;;;;9.90;6.50;;;10.80;98.10;;;;;;5020350;28;20488;-59
2020/12/19 11:25:24;;;;;;;7.63;6.80;;;10.40;98.80;;;;;;5052129;28;20533;-60
2020/12/19 11:27:50;;;;;;;8.70;6.30;;;10.10;99.00;;;;;;5026676;28;20021;-60
2020/12/19 11:30:16;;;;;;;8.25;6.95;;;9.80;99.90;;;;;;5017794;28;20076;-60
2020/12/19 11:32:42;;;;;;;40.47;9.63;;;10.20;99.90;;;;;;5034754;28;20393;-58
2020/12/19 11:35:10;;;;;;;10.30;6.22;;;10.90;98.50;;;;;;5043804;28;20022;-65
2020/12/19 11:37:36;;;;;;;6.40;5.70;;;11.30;98.30;;;;;;5044505;28;20438;-62
2020/12/19 11:40:03;;;;;;;6.57;5.80;;;11.10;97.90;;;;;;5037492;28;20104;-67
2020/12/19 11:42:29;;;;;;;7.65;6.25;;;10.90;97.50;;;;;;5029519;28;20041;-68
2020/12/19 11:44:55;;;;;;;9.25;6.25;;;10.80;98.00;;;;;;5040773;28;20351;-61
2020/12/19 11:47:21;;;;;;;9.50;6.30;;;10.80;97.60;;;;;;5047602;28;20135;-60
2020/12/19 11:49:46;;;;;;;10.13;6.18;;;11.40;97.40;;;;;;5039118;28;20070;-61
2020/12/19 11:52:12;;;;;;;6.55;5.32;;;11.90;95.90;;;;;;5041320;28;20044;-61
2020/12/19 11:54:39;;;;;;;9.40;7.07;;;12.40;95.20;;;;;;5046156;28;20028;-64
2020/12/19 11:57:06;;;;;;;8.25;6.18;;;13.80;92.90;;;;;;5017802;28;20379;-69
2020/12/19 11:59:32;;;;;;;6.68;4.78;;;14.10;91.20;;;;;;5037687;28;20114;-69
2020/12/19 12:02:03;;;;;;;7.50;5.68;;;14.70;96.90;;;;;;5034569;28;20039;-67
2020/12/19 12:04:29;;;;;;;6.30;5.40;;;15.80;91.70;;;;;;5034053;28;20033;-60
2020/12/19 12:06:54;;;;;;;7.63;5.72;;;15.70;86.10;;;;;;5018204;28;20077;-61
2020/12/19 12:09:20;;;;;;;7.82;6.40;;;16.20;83.20;;;;;;5029846;28;20059;-61
2020/12/19 12:11:46;;;;;;;6.30;5.15;;;16.30;78.90;;;;;;5021740;28;20032;-62
2020/12/19 12:14:12;;;;;;;5.07;4.57;;;16.70;81.90;;;;;;5023624;28;20553;-60
2020/12/19 12:16:37;;;;;;;6.55;4.93;;;16.80;79.30;;;;;;5046086;28;20025;-60
2020/12/19 12:19:03;;;;;;;11.15;6.13;;;17.30;75.10;;;;;;5035736;28;20026;-73
2020/12/19 12:21:36;;;;;;;8.05;5.68;;;17.60;73.00;;;;;;5046373;28;20029;-61
2020/12/19 12:24:02;;;;;;;7.70;6.38;;;18.60;71.70;;;;;;5025536;28;20064;-60
2020/12/19 12:26:28;;;;;;;7.38;6.15;;;18.90;63.60;;;;;;5046439;28;20036;-62
2020/12/19 12:28:55;;;;;;;7.63;6.30;;;17.80;67.70;;;;;;5036108;28;20026;-61
2020/12/19 12:31:26;;;;;;;11.00;6.57;;;17.70;73.90;;;;;;5029805;28;20036;-60
2020/12/19 12:33:52;;;;;;;7.07;5.95;;;16.40;76.60;;;;;;5013963;28;20029;-61
2020/12/19 12:36:19;;;;;;;9.18;6.90;;;15.50;78.40;;;;;;5041974;28;20028;-59
2020/12/19 12:38:45;;;;;;;8.38;6.28;;;15.90;80.70;;;;;;5036654;28;20033;-59
2020/12/19 12:41:11;;;;;;;8.68;6.40;;;16.40;79.40;;;;;;5047642;28;20033;-61
2020/12/19 12:43:37;;;;;;;12.00;6.30;;;16.70;78.00;;;;;;5032414;28;20030;-60